createdAt,value
2017-08-27T00:00:06.209Z,101.1
2017-08-27T00:01:05.533Z,101.1
2017-08-27T00:02:04.981Z,101.1
2017-08-27T00:03:04.423Z,101.1
2017-08-27T00:04:04.110Z,101.1
2017-08-27T00:05:02.924Z,101.1
2017-08-27T00:06:02.243Z,101.1
2017-08-27T00:07:01.805Z,101.2
2017-08-27T00:08:01.369Z,101.2
2017-08-27T00:09:59.944Z,101.2
2017-08-27T00:10:59.511Z,101.2
2017-08-27T00:11:58.959Z,101.2
2017-08-27T00:12:58.162Z,101.2
2017-08-27T00:13:57.728Z,101.2
2017-08-27T00:14:57.165Z,101.2
2017-08-27T00:17:54.998Z,101.2
2017-08-27T00:18:54.556Z,101.2
2017-08-27T00:19:53.506Z,101.2
2017-08-27T00:20:53.190Z,101.2
2017-08-27T00:21:52.508Z,101.2
2017-08-27T00:22:51.944Z,101.2
2017-08-27T00:23:51.257Z,101.2
2017-08-27T00:24:50.320Z,101.2
2017-08-27T00:25:50.132Z,101.2
2017-08-27T00:26:49.193Z,101.2
2017-08-27T00:27:48.760Z,101.2
2017-08-27T00:28:47.947Z,101.2
2017-08-27T00:29:47.130Z,101.2
2017-08-27T00:30:46.938Z,101.2
2017-08-27T00:31:46.262Z,101.1
2017-08-27T00:32:45.329Z,101.1
2017-08-27T00:33:44.904Z,101.1
2017-08-27T00:34:44.476Z,101.1
2017-08-27T00:35:43.418Z,101.1
2017-08-27T00:36:42.749Z,101.1
2017-08-27T00:37:42.445Z,101.1
2017-08-27T00:39:40.896Z,101.1
2017-08-27T00:41:39.855Z,101.1
2017-08-27T00:42:39.290Z,101.2
2017-08-27T00:43:38.618Z,101.2
2017-08-27T00:44:37.819Z,101.2
2017-08-27T00:45:37.381Z,101.2
2017-08-27T00:46:36.695Z,101.2
2017-08-27T00:48:35.367Z,101.2
2017-08-27T00:49:34.807Z,101.2
2017-08-27T00:50:33.994Z,101.2
2017-08-27T00:51:33.296Z,101.2
2017-08-27T00:52:32.733Z,101.2
2017-08-27T00:53:32.302Z,101.2
2017-08-27T00:54:31.612Z,101.2
2017-08-27T00:55:31.063Z,101.2
2017-08-27T00:56:30.128Z,101.2
2017-08-27T00:57:29.444Z,101.2
2017-08-27T00:58:29.137Z,101.2
2017-08-27T00:58:59.874Z,101.2
2017-08-27T00:59:30.367Z,101.2
2017-08-27T01:00:01.112Z,101.2
2017-08-27T01:01:27.233Z,101.2
2017-08-27T01:02:26.434Z,101.2
2017-08-27T01:03:25.997Z,101.2
2017-08-27T01:04:24.821Z,101.2
2017-08-27T01:05:24.260Z,101.2
2017-08-27T01:06:23.706Z,101.2
2017-08-27T01:07:23.156Z,101.2
2017-08-27T01:08:22.587Z,101.2
2017-08-27T01:09:21.901Z,101.2
2017-08-27T01:10:21.588Z,101.2
2017-08-27T01:11:20.556Z,101.3
2017-08-27T01:12:20.118Z,101.3
2017-08-27T01:13:19.677Z,101.3
2017-08-27T01:15:17.990Z,101.3
2017-08-27T01:16:17.335Z,101.3
2017-08-27T01:17:16.898Z,101.3
2017-08-27T01:17:47.392Z,101.3
2017-08-27T01:18:18.013Z,101.3
2017-08-27T01:18:48.648Z,101.3
2017-08-27T01:20:15.136Z,101.3
2017-08-27T01:21:14.327Z,101.3
2017-08-27T01:23:13.033Z,101.3
2017-08-27T01:24:12.592Z,101.3
2017-08-27T01:25:11.911Z,101.3
2017-08-27T01:26:11.096Z,101.3
2017-08-27T01:27:10.530Z,101.3
2017-08-27T01:28:09.975Z,101.3
2017-08-27T01:29:09.284Z,101.3
2017-08-27T01:30:08.728Z,101.4
2017-08-27T01:31:08.312Z,101.4
2017-08-27T01:32:07.129Z,101.4
2017-08-27T01:34:06.452Z,101.4
2017-08-27T01:35:05.387Z,101.4
2017-08-27T01:36:05.084Z,101.4
2017-08-27T01:37:04.403Z,101.4
2017-08-27T01:38:03.717Z,101.4
2017-08-27T01:39:02.528Z,101.4
2017-08-27T01:40:01.978Z,101.4
2017-08-27T01:41:01.417Z,101.4
2017-08-27T01:42:00.856Z,101.4
2017-08-27T01:43:00.694Z,101.4
2017-08-27T01:44:58.894Z,101.4
2017-08-27T01:45:58.218Z,101.4
2017-08-27T01:46:57.662Z,101.4
2017-08-27T01:47:56.974Z,101.4
2017-08-27T01:48:56.296Z,101.4
2017-08-27T01:49:55.733Z,101.4
2017-08-27T01:50:55.047Z,101.4
2017-08-27T01:51:54.497Z,101.4
2017-08-27T01:52:53.931Z,101.4
2017-08-27T01:53:53.492Z,101.4
2017-08-27T01:54:52.672Z,101.4
2017-08-27T01:55:52.117Z,101.4
2017-08-27T01:56:51.568Z,101.4
2017-08-27T01:57:50.752Z,101.4
2017-08-27T01:58:50.205Z,101.4
2017-08-27T01:59:49.267Z,101.4
2017-08-27T02:00:49.091Z,101.4
2017-08-27T02:01:48.283Z,101.4
2017-08-27T02:02:47.723Z,101.4
2017-08-27T02:03:47.148Z,101.4
2017-08-27T02:04:46.716Z,101.4
2017-08-27T02:05:45.651Z,101.4
2017-08-27T02:06:44.714Z,101.4
2017-08-27T02:07:44.401Z,101.4
2017-08-27T02:08:43.852Z,101.4
2017-08-27T02:09:43.044Z,101.4
2017-08-27T02:10:42.481Z,101.4
2017-08-27T02:11:41.920Z,101.4
2017-08-27T02:12:41.486Z,101.5
2017-08-27T02:13:40.294Z,101.5
2017-08-27T02:14:39.732Z,101.5
2017-08-27T02:15:39.284Z,101.5
2017-08-27T02:16:38.469Z,101.5
2017-08-27T02:18:37.420Z,101.5
2017-08-27T02:19:36.613Z,101.5
2017-08-27T02:20:36.175Z,101.5
2017-08-27T02:21:35.898Z,101.5
2017-08-27T02:22:34.975Z,101.5
2017-08-27T02:23:34.569Z,101.5
2017-08-27T02:24:33.506Z,101.5
2017-08-27T02:25:32.813Z,101.5
2017-08-27T02:26:31.876Z,101.5
2017-08-27T02:27:31.694Z,101.5
2017-08-27T02:28:31.014Z,101.5
2017-08-27T02:29:30.324Z,101.5
2017-08-27T02:30:29.775Z,101.5
2017-08-27T02:31:29.235Z,101.5
2017-08-27T02:32:28.552Z,101.5
2017-08-27T02:33:27.870Z,101.5
2017-08-27T02:34:27.307Z,101.5
2017-08-27T02:35:26.623Z,101.5
2017-08-27T02:36:25.934Z,101.5
2017-08-27T02:38:24.644Z,101.5
2017-08-27T02:39:24.351Z,101.5
2017-08-27T02:40:23.433Z,101.5
2017-08-27T02:41:22.919Z,101.5
2017-08-27T02:42:22.329Z,101.5
2017-08-27T02:43:21.265Z,101.5
2017-08-27T02:44:20.581Z,101.5
2017-08-27T02:45:19.899Z,101.5
2017-08-27T02:46:19.849Z,101.5
2017-08-27T02:47:18.788Z,101.5
2017-08-27T02:48:18.220Z,101.5
2017-08-27T02:49:17.671Z,101.5
2017-08-27T02:50:16.738Z,101.5
2017-08-27T02:51:16.300Z,101.5
2017-08-27T02:52:15.879Z,101.5
2017-08-27T02:53:15.340Z,101.5
2017-08-27T02:54:14.658Z,101.5
2017-08-27T02:55:14.096Z,101.5
2017-08-27T02:56:13.305Z,101.5
2017-08-27T02:58:12.129Z,101.5
2017-08-27T02:59:11.689Z,101.5
2017-08-27T03:00:10.624Z,101.5
2017-08-27T03:01:10.318Z,101.5
2017-08-27T03:02:09.401Z,101.5
2017-08-27T03:03:08.590Z,101.5
2017-08-27T03:04:08.163Z,101.5
2017-08-27T03:05:07.479Z,101.5
2017-08-27T03:06:06.795Z,101.5
2017-08-27T03:07:05.862Z,101.5
2017-08-27T03:08:05.675Z,101.5
2017-08-27T03:09:04.991Z,101.5
2017-08-27T03:10:04.709Z,101.5
2017-08-27T03:11:03.649Z,101.5
2017-08-27T03:13:02.464Z,101.5
2017-08-27T03:14:02.146Z,101.5
2017-08-27T03:15:00.957Z,101.5
2017-08-27T03:16:00.268Z,101.5
2017-08-27T03:16:59.942Z,101.5
2017-08-27T03:17:59.501Z,101.5
2017-08-27T03:18:58.186Z,101.5
2017-08-27T03:19:57.885Z,101.5
2017-08-27T03:20:57.065Z,101.5
2017-08-27T03:21:56.261Z,101.5
2017-08-27T03:22:55.694Z,101.5
2017-08-27T03:23:55.260Z,101.5
2017-08-27T03:24:54.821Z,101.4
2017-08-27T03:25:54.258Z,101.5
2017-08-27T03:26:53.568Z,101.4
2017-08-27T03:27:53.019Z,101.5
2017-08-27T03:28:52.346Z,101.4
2017-08-27T03:29:51.661Z,101.4
2017-08-27T03:30:50.993Z,101.4
2017-08-27T03:31:50.318Z,101.4
2017-08-27T03:32:49.513Z,101.4
2017-08-27T03:33:48.943Z,101.4
2017-08-27T03:34:48.258Z,101.4
2017-08-27T03:35:47.452Z,101.4
2017-08-27T03:36:46.947Z,101.4
2017-08-27T03:37:46.639Z,101.4
2017-08-27T03:38:45.581Z,101.4
2017-08-27T03:39:44.896Z,101.4
2017-08-27T03:40:44.828Z,101.4
2017-08-27T03:42:43.658Z,101.4
2017-08-27T03:43:42.708Z,101.4
2017-08-27T03:44:42.026Z,101.4
2017-08-27T03:45:41.144Z,101.4
2017-08-27T03:46:40.952Z,101.4
2017-08-27T03:47:39.902Z,101.4
2017-08-27T03:48:39.609Z,101.4
2017-08-27T03:49:38.548Z,101.4
2017-08-27T03:50:38.240Z,101.4
2017-08-27T03:51:37.563Z,101.4
2017-08-27T03:52:36.750Z,101.4
2017-08-27T03:53:36.067Z,101.4
2017-08-27T03:54:35.601Z,101.4
2017-08-27T03:55:35.051Z,101.4
2017-08-27T03:56:34.378Z,101.3
2017-08-27T03:57:33.696Z,101.3
2017-08-27T03:58:33.147Z,101.3
2017-08-27T03:59:32.454Z,101.3
2017-08-27T04:00:31.789Z,101.3
2017-08-27T04:01:31.355Z,101.2
2017-08-27T04:02:30.413Z,101.2
2017-08-27T04:03:29.737Z,101.2
2017-08-27T04:04:29.269Z,101.2
2017-08-27T04:05:28.582Z,101.2
2017-08-27T04:06:28.023Z,101.2
2017-08-27T04:07:26.972Z,101.2
2017-08-27T04:08:26.656Z,101.1
2017-08-27T04:09:25.973Z,101.1
2017-08-27T04:10:25.528Z,101.1
2017-08-27T04:11:24.855Z,101.1
2017-08-27T04:12:24.173Z,101.1
2017-08-27T04:13:23.354Z,101.1
2017-08-27T04:14:23.177Z,101.1
2017-08-27T04:15:22.252Z,101.1
2017-08-27T04:16:21.447Z,101
2017-08-27T04:17:20.897Z,101
2017-08-27T04:18:20.328Z,101
2017-08-27T04:19:19.661Z,101
2017-08-27T04:20:19.030Z,100.9
2017-08-27T04:21:18.465Z,100.9
2017-08-27T04:22:17.789Z,100.9
2017-08-27T04:23:16.845Z,100.9
2017-08-27T04:24:16.417Z,100.9
2017-08-27T04:25:15.846Z,100.9
2017-08-27T04:26:15.288Z,100.9
2017-08-27T04:27:14.361Z,100.9
2017-08-27T04:29:13.183Z,100.8
2017-08-27T04:30:12.371Z,100.8
2017-08-27T04:31:11.680Z,100.8
2017-08-27T04:32:10.996Z,100.8
2017-08-27T04:33:10.565Z,100.8
2017-08-27T04:34:09.868Z,100.8
2017-08-27T04:36:08.697Z,100.8
2017-08-27T04:37:08.135Z,100.7
2017-08-27T04:38:07.077Z,100.7
2017-08-27T04:39:06.896Z,100.7
2017-08-27T04:41:05.718Z,100.7
2017-08-27T04:42:04.774Z,100.7
2017-08-27T04:43:04.235Z,100.7
2017-08-27T04:44:03.545Z,100.7
2017-08-27T04:45:02.875Z,100.7
2017-08-27T04:47:01.564Z,100.7
2017-08-27T04:48:01.135Z,100.7
2017-08-27T04:49:00.058Z,100.6
2017-08-27T04:49:59.757Z,100.6
2017-08-27T04:50:58.835Z,100.6
2017-08-27T04:51:58.014Z,100.6
2017-08-27T04:52:57.456Z,100.6
2017-08-27T04:53:56.901Z,100.6
2017-08-27T04:54:56.487Z,100.6
2017-08-27T04:55:55.438Z,100.5
2017-08-27T04:56:55.004Z,100.5
2017-08-27T04:57:54.446Z,100.5
2017-08-27T04:58:54.011Z,100.4
2017-08-27T04:59:52.835Z,100.4
2017-08-27T05:00:52.032Z,100.4
2017-08-27T05:01:51.476Z,100.4
2017-08-27T05:02:50.932Z,100.4
2017-08-27T05:03:50.116Z,100.3
2017-08-27T05:04:49.936Z,100.2
2017-08-27T05:05:49.256Z,100.2
2017-08-27T05:06:48.580Z,100.1
2017-08-27T05:07:47.402Z,100.1
2017-08-27T05:08:46.725Z,100
2017-08-27T05:09:46.293Z,100
2017-08-27T05:10:45.985Z,99.9
2017-08-27T05:11:44.935Z,99.9
2017-08-27T05:12:44.372Z,99.9
2017-08-27T05:13:43.951Z,99.8
2017-08-27T05:14:43.145Z,99.8
2017-08-27T05:15:42.201Z,99.6
2017-08-27T05:16:41.387Z,99.5
2017-08-27T05:19:39.970Z,99.3
2017-08-27T05:20:38.800Z,99.3
2017-08-27T05:21:38.614Z,99.2
2017-08-27T05:22:38.061Z,99.2
2017-08-27T05:23:37.267Z,99.1
2017-08-27T05:24:36.701Z,99.1
2017-08-27T05:25:36.144Z,99.1
2017-08-27T05:26:35.464Z,99
2017-08-27T05:27:34.781Z,98.9
2017-08-27T05:28:34.347Z,98.9
2017-08-27T05:29:33.158Z,98.8
2017-08-27T05:32:31.235Z,98.6
2017-08-27T05:33:30.928Z,98.6
2017-08-27T05:34:30.114Z,98.5
2017-08-27T05:35:29.292Z,98.5
2017-08-27T05:36:28.609Z,98.5
2017-08-27T05:37:28.176Z,98.3
2017-08-27T05:38:27.261Z,98.2
2017-08-27T05:39:26.714Z,98.2
2017-08-27T05:40:26.177Z,98.1
2017-08-27T05:41:25.366Z,98
2017-08-27T05:42:24.431Z,97.8
2017-08-27T05:43:24.246Z,97.7
2017-08-27T05:44:23.199Z,97.4
2017-08-27T05:45:22.507Z,97.1
2017-08-27T05:46:22.085Z,96.7
2017-08-27T05:47:21.265Z,96.4
2017-08-27T05:48:20.461Z,96
2017-08-27T05:49:19.919Z,96
2017-08-27T05:50:19.364Z,95.3
2017-08-27T05:51:18.812Z,95.5
2017-08-27T05:52:18.123Z,95.2
2017-08-27T05:53:17.437Z,94.7
2017-08-27T05:54:16.889Z,94.7
2017-08-27T05:55:16.098Z,94.6
2017-08-27T05:56:15.549Z,94.2
2017-08-27T05:57:14.987Z,93.7
2017-08-27T05:58:14.419Z,93.7
2017-08-27T05:59:13.491Z,93.6
2017-08-27T06:00:13.190Z,92.9
2017-08-27T06:01:12.264Z,92
2017-08-27T06:02:11.691Z,92.1
2017-08-27T06:03:10.630Z,91.4
2017-08-27T06:04:10.576Z,90.5
2017-08-27T06:05:09.149Z,90.5
2017-08-27T06:06:08.973Z,88.9
2017-08-27T06:07:08.547Z,88.9
2017-08-27T06:07:39.173Z,88.9
2017-08-27T06:09:07.046Z,87.2
2017-08-27T06:10:05.868Z,86.6
2017-08-27T06:11:05.569Z,84.5
2017-08-27T06:12:05.135Z,84.5
2017-08-27T06:13:04.183Z,84.3
2017-08-27T06:14:03.486Z,83.5
2017-08-27T06:16:02.314Z,83.7
2017-08-27T06:17:01.885Z,84
2017-08-27T06:18:00.961Z,84
2017-08-27T06:19:59.797Z,81.7
2017-08-27T06:20:59.379Z,82.1
2017-08-27T06:22:57.702Z,82.7
2017-08-27T06:23:57.281Z,82.3
2017-08-27T06:24:56.595Z,81.6
2017-08-27T06:25:56.040Z,82
2017-08-27T06:26:55.094Z,81.4
2017-08-27T06:27:54.411Z,81.7
2017-08-27T06:28:53.862Z,82.7
2017-08-27T06:31:52.098Z,81.6
2017-08-27T06:32:50.899Z,81.8
2017-08-27T06:33:50.848Z,82.3
2017-08-27T06:34:49.790Z,82.1
2017-08-27T06:35:48.979Z,81.9
2017-08-27T06:36:48.542Z,82.2
2017-08-27T06:37:47.855Z,80.7
2017-08-27T06:38:47.543Z,80.7
2017-08-27T06:39:46.480Z,81
2017-08-27T06:40:45.783Z,79.6
2017-08-27T06:42:44.637Z,81.4
2017-08-27T06:43:44.217Z,81.5
2017-08-27T06:44:43.670Z,82.1
2017-08-27T06:45:42.483Z,82.1
2017-08-27T06:46:41.791Z,82.1
2017-08-27T06:47:41.238Z,82.1
2017-08-27T06:48:40.675Z,82
2017-08-27T06:50:39.378Z,82
2017-08-27T06:51:38.814Z,81.2
2017-08-27T06:52:38.374Z,81.4
2017-08-27T06:53:37.319Z,81
2017-08-27T06:54:37.010Z,81.1
2017-08-27T06:55:36.601Z,80.6
2017-08-27T06:56:35.409Z,79.4
2017-08-27T06:57:34.847Z,78.5
2017-08-27T06:58:34.291Z,77.8
2017-08-27T06:59:33.724Z,78.5
2017-08-27T07:00:33.297Z,77.5
2017-08-27T07:01:32.099Z,74.4
2017-08-27T07:02:02.721Z,74.4
2017-08-27T07:02:33.355Z,73.2
2017-08-27T07:03:30.789Z,74.9
2017-08-27T07:05:29.868Z,74.9
2017-08-27T07:06:28.547Z,73.2
2017-08-27T07:07:28.498Z,73.2
2017-08-27T07:08:27.688Z,71.7
2017-08-27T07:09:27.113Z,73.2
2017-08-27T07:10:26.308Z,72.9
2017-08-27T07:11:25.751Z,68.1
2017-08-27T07:13:24.576Z,69.4
2017-08-27T07:14:23.759Z,70.3
2017-08-27T07:16:22.467Z,69.5
2017-08-27T07:17:22.037Z,68.4
2017-08-27T07:18:20.863Z,68.1
2017-08-27T07:19:20.562Z,68.1
2017-08-27T07:20:19.879Z,67.5
2017-08-27T07:21:19.572Z,67.8
2017-08-27T07:23:18.165Z,63.1
2017-08-27T07:24:16.966Z,62.4
2017-08-27T07:25:16.527Z,63.8
2017-08-27T07:26:15.848Z,65.3
2017-08-27T07:27:15.289Z,61.2
2017-08-27T07:28:15.021Z,59.8
2017-08-27T07:29:13.964Z,61.7
2017-08-27T07:30:13.539Z,63.1
2017-08-27T07:31:12.486Z,63.7
2017-08-27T07:32:12.165Z,62.7
2017-08-27T07:33:11.357Z,60.4
2017-08-27T07:34:10.686Z,60.4
2017-08-27T07:35:10.301Z,62.4
2017-08-27T07:36:09.360Z,63.6
2017-08-27T07:37:09.484Z,60.2
2017-08-27T07:38:07.931Z,59.1
2017-08-27T07:39:07.277Z,61.7
2017-08-27T07:40:06.729Z,61.7
2017-08-27T07:41:05.920Z,60
2017-08-27T07:43:04.868Z,60.9
2017-08-27T07:44:04.190Z,56.8
2017-08-27T07:45:03.261Z,60.6
2017-08-27T07:49:01.117Z,61.4
2017-08-27T07:50:59.815Z,59
2017-08-27T07:51:59.003Z,58.4
2017-08-27T07:52:58.321Z,58.8
2017-08-27T08:18:42.095Z,59.3
2017-08-27T08:22:39.090Z,56.5
2017-08-27T08:23:38.551Z,57.2
2017-08-27T08:24:38.251Z,56.6
2017-08-27T08:25:36.938Z,53
2017-08-27T08:28:35.402Z,54.3
2017-08-27T08:29:06.164Z,54.3
2017-08-27T08:30:34.418Z,56.9
2017-08-27T08:33:32.146Z,55.5
2017-08-27T08:34:31.842Z,56
2017-08-27T08:35:31.280Z,54.6
2017-08-27T08:36:30.719Z,54.8
2017-08-27T08:43:25.879Z,54.8
2017-08-27T09:03:13.579Z,53.4
2017-08-27T09:10:08.862Z,54.4
2017-08-27T09:12:07.467Z,53.9
2017-08-27T09:14:06.422Z,52.9
2017-08-27T09:16:05.122Z,54.8
2017-08-27T09:17:04.851Z,54.3
2017-08-27T09:18:04.306Z,55.1
2017-08-27T09:20:02.758Z,55.9
2017-08-27T09:22:01.725Z,54.4
2017-08-27T09:22:32.094Z,54.4
2017-08-27T09:24:59.731Z,54.5
2017-08-27T09:25:59.163Z,54.5
2017-08-27T09:26:58.722Z,54.5
2017-08-27T09:27:58.163Z,52.8
2017-08-27T09:28:57.458Z,53.8
2017-08-27T09:31:55.551Z,54.6
2017-08-27T09:33:54.397Z,52.4
2017-08-27T09:34:53.713Z,52.9
2017-08-27T09:35:52.821Z,53.6
2017-08-27T09:36:52.405Z,54.1
2017-08-27T09:37:52.102Z,52.9
2017-08-27T09:38:51.163Z,52.4
2017-08-27T09:39:50.623Z,54
2017-08-27T09:40:50.073Z,53.6
2017-08-27T09:41:49.526Z,53.9
2017-08-27T09:42:48.718Z,53.9
2017-08-27T09:43:48.169Z,53.9
2017-08-27T09:44:47.479Z,52.4
2017-08-27T09:45:46.924Z,54.4
2017-08-27T09:46:45.998Z,52.6
2017-08-27T09:47:45.319Z,51.4
2017-08-27T09:48:45.276Z,53.1
2017-08-27T09:49:44.601Z,54.5
2017-08-27T09:50:44.040Z,54.4
2017-08-27T09:51:43.608Z,53.4
2017-08-27T09:52:42.542Z,53.2
2017-08-27T09:53:41.856Z,53.2
2017-08-27T09:54:41.330Z,53.7
2017-08-27T09:55:40.782Z,54.6
2017-08-27T09:57:39.898Z,54
2017-08-27T09:58:39.092Z,54.4
2017-08-27T09:59:38.673Z,55.2
2017-08-27T10:00:37.624Z,55.2
2017-08-27T10:01:37.190Z,55.2
2017-08-27T10:02:36.627Z,54.9
2017-08-27T10:03:35.935Z,55.3
2017-08-27T10:04:35.372Z,54.5
2017-08-27T10:05:35.075Z,54
2017-08-27T10:06:34.395Z,54.8
2017-08-27T10:07:33.461Z,54.5
2017-08-27T10:08:32.778Z,55.3
2017-08-27T10:09:31.979Z,55.2
2017-08-27T10:10:31.794Z,54.8
2017-08-27T10:11:30.982Z,55.4
2017-08-27T10:13:29.813Z,54.9
2017-08-27T10:14:29.249Z,54.7
2017-08-27T10:15:28.688Z,54.9
2017-08-27T10:16:28.159Z,53.9
2017-08-27T10:17:27.475Z,53.6
2017-08-27T10:18:26.913Z,53.6
2017-08-27T10:19:26.353Z,53.6
2017-08-27T10:20:25.659Z,53.6
2017-08-27T10:21:25.105Z,53.4
2017-08-27T10:22:24.686Z,52.1
2017-08-27T10:23:23.879Z,53
2017-08-27T10:24:23.585Z,53.4
2017-08-27T10:25:22.524Z,52.5
2017-08-27T10:26:21.977Z,52.5
2017-08-27T10:27:21.424Z,53.4
2017-08-27T10:28:20.869Z,53.4
2017-08-27T10:29:20.326Z,53.4
2017-08-27T10:31:19.285Z,54.5
2017-08-27T10:32:18.622Z,55.2
2017-08-27T10:33:17.805Z,55.2
2017-08-27T10:34:17.247Z,55.2
2017-08-27T10:35:16.829Z,53.8
2017-08-27T10:36:16.422Z,53.8
2017-08-27T10:37:15.856Z,53.8
2017-08-27T10:38:14.672Z,53.7
2017-08-27T10:40:14.000Z,53.7
2017-08-27T10:41:13.075Z,53.7
2017-08-27T10:42:12.769Z,52.4
2017-08-27T10:44:11.480Z,51.9
2017-08-27T10:45:11.056Z,51.5
2017-08-27T10:46:10.117Z,52.8
2017-08-27T10:47:09.688Z,53.2
2017-08-27T10:48:09.261Z,53.2
2017-08-27T10:49:08.334Z,52
2017-08-27T10:50:07.896Z,52.6
2017-08-27T10:51:07.547Z,51.9
2017-08-27T10:52:06.608Z,53.2
2017-08-27T10:53:06.068Z,51.8
2017-08-27T10:54:05.398Z,51.8
2017-08-27T10:55:04.841Z,51.8
2017-08-27T10:56:04.387Z,51.8
2017-08-27T10:57:03.844Z,52.7
2017-08-27T10:58:02.656Z,52.9
2017-08-27T10:59:02.357Z,54.1
2017-08-27T11:00:02.056Z,51.4
2017-08-27T11:01:01.239Z,52.4
2017-08-27T11:02:00.681Z,52.9
2017-08-27T11:03:00.113Z,53.5
2017-08-27T11:03:59.681Z,52.3
2017-08-27T11:04:59.253Z,53.9
2017-08-27T11:05:58.685Z,52.2
2017-08-27T11:06:57.515Z,52.7
2017-08-27T11:07:57.201Z,53.4
2017-08-27T11:08:56.394Z,51.6
2017-08-27T11:09:56.346Z,50.4
2017-08-27T11:10:55.785Z,51.1
2017-08-27T11:11:54.855Z,51.1
2017-08-27T11:12:54.037Z,51.1
2017-08-27T11:13:53.732Z,50.8
2017-08-27T11:14:52.921Z,50.1
2017-08-27T11:15:52.244Z,51
2017-08-27T11:16:51.819Z,52.3
2017-08-27T11:17:51.518Z,50.7
2017-08-27T11:18:50.830Z,51.5
2017-08-27T11:19:50.279Z,51.1
2017-08-27T11:20:49.592Z,50.2
2017-08-27T11:21:48.923Z,50.9
2017-08-27T11:23:48.269Z,51.4
2017-08-27T11:24:47.721Z,51.5
2017-08-27T11:25:46.646Z,51
2017-08-27T11:26:46.459Z,51.6
2017-08-27T11:27:46.026Z,50.9
2017-08-27T11:28:44.844Z,51
2017-08-27T11:29:44.283Z,51
2017-08-27T11:30:44.111Z,51
2017-08-27T11:31:43.674Z,48.1
2017-08-27T11:32:42.606Z,48.1
2017-08-27T11:33:42.307Z,48.1
2017-08-27T11:34:41.892Z,48.4
2017-08-27T11:35:40.710Z,48.6
2017-08-27T11:36:40.034Z,49.3
2017-08-27T11:37:39.857Z,49
2017-08-27T11:38:39.042Z,48.8
2017-08-27T11:39:38.992Z,48.8
2017-08-27T11:40:38.441Z,49.9
2017-08-27T11:41:37.501Z,48.5
2017-08-27T11:42:37.081Z,50
2017-08-27T11:43:36.386Z,50.9
2017-08-27T11:44:35.578Z,50.7
2017-08-27T11:45:35.525Z,50.7
2017-08-27T11:46:34.849Z,50.7
2017-08-27T11:47:33.793Z,51.4
2017-08-27T11:48:33.878Z,51.4
2017-08-27T11:49:33.322Z,51.2
2017-08-27T11:50:32.393Z,48.6
2017-08-27T11:51:32.081Z,50
2017-08-27T11:52:31.394Z,49.7
2017-08-27T11:53:30.571Z,48.5
2017-08-27T11:54:30.400Z,48.4
2017-08-27T11:55:29.477Z,49
2017-08-27T11:56:28.673Z,49.3
2017-08-27T11:57:28.630Z,49.3
2017-08-27T11:58:28.069Z,49.5
2017-08-27T11:59:27.250Z,50.3
2017-08-27T12:00:26.682Z,50.1
2017-08-27T12:00:57.454Z,50.1
2017-08-27T12:01:28.280Z,50.7
2017-08-27T12:01:58.030Z,50.7
2017-08-27T12:02:28.658Z,51.6
2017-08-27T12:03:25.081Z,51.9
2017-08-27T12:04:24.392Z,50.7
2017-08-27T12:05:23.615Z,50.9
2017-08-27T12:06:23.051Z,50.9
2017-08-27T12:07:22.626Z,49.5
2017-08-27T12:09:21.464Z,49
2017-08-27T12:11:20.420Z,50.5
2017-08-27T12:12:19.987Z,50.7
2017-08-27T12:13:19.043Z,50.6
2017-08-27T12:14:18.876Z,51.1
2017-08-27T12:15:18.188Z,50.9
2017-08-27T12:16:17.260Z,50.8
2017-08-27T12:17:17.196Z,50
2017-08-27T12:18:16.650Z,50.8
2017-08-27T12:19:16.232Z,50.3
2017-08-27T12:20:15.276Z,50.2
2017-08-27T12:21:14.478Z,50.2
2017-08-27T12:22:14.290Z,50.7
2017-08-27T12:24:12.870Z,49.9
2017-08-27T12:25:12.320Z,49.9
2017-08-27T12:26:11.754Z,50.7
2017-08-27T12:27:11.190Z,50.4
2017-08-27T12:28:10.754Z,50
2017-08-27T12:29:10.437Z,51.1
2017-08-27T12:30:09.875Z,50.5
2017-08-27T12:31:09.054Z,50.9
2017-08-27T12:32:08.509Z,50.9
2017-08-27T12:33:07.953Z,50.7
2017-08-27T12:34:07.393Z,50.7
2017-08-27T12:35:06.841Z,50.7
2017-08-27T12:36:06.536Z,50.7
2017-08-27T12:37:05.481Z,50.7
2017-08-27T12:38:05.053Z,50.7
2017-08-27T12:39:04.863Z,50.7
2017-08-27T12:40:04.177Z,50.7
2017-08-27T12:42:03.145Z,50.7
2017-08-27T12:43:02.452Z,50.7
2017-08-27T12:44:01.887Z,48.3
2017-08-27T12:44:32.394Z,48.3
2017-08-27T12:45:02.770Z,48.3
2017-08-27T12:45:33.275Z,48.3
2017-08-27T12:47:00.015Z,48.3
2017-08-27T12:47:59.959Z,51.2
2017-08-27T12:48:59.413Z,51.2
2017-08-27T12:49:58.859Z,51.2
2017-08-27T12:50:58.181Z,51.2
2017-08-27T12:51:57.635Z,51.4
2017-08-27T12:52:57.209Z,51.4
2017-08-27T12:53:56.535Z,51.4
2017-08-27T12:54:55.613Z,51.4
2017-08-27T12:55:26.350Z,51.4
2017-08-27T12:55:56.484Z,51.4
2017-08-27T12:56:27.257Z,51.4
2017-08-27T12:57:54.007Z,49.7
2017-08-27T12:58:53.652Z,49.7
2017-08-27T12:59:52.961Z,49.7
2017-08-27T13:00:52.547Z,49.7
2017-08-27T13:01:51.998Z,49.7
2017-08-27T13:02:51.313Z,49.7
2017-08-27T13:03:51.252Z,49.7
2017-08-27T13:04:50.070Z,49.7
2017-08-27T13:05:50.139Z,49.7
2017-08-27T13:06:48.963Z,49.7
2017-08-27T13:07:48.788Z,49.7
2017-08-27T13:08:48.484Z,49.7
2017-08-27T13:09:47.937Z,49.7
2017-08-27T13:10:47.391Z,49.7
2017-08-27T13:11:46.477Z,49.7
2017-08-27T13:12:46.410Z,49.7
2017-08-27T13:13:45.229Z,50.7
2017-08-27T13:14:44.663Z,50.7
2017-08-27T13:15:44.483Z,50.7
2017-08-27T13:16:43.792Z,50.7
2017-08-27T13:17:43.120Z,50.7
2017-08-27T13:18:42.810Z,50.7
2017-08-27T13:19:42.399Z,50.7
2017-08-27T13:20:41.718Z,49.6
2017-08-27T13:21:40.778Z,49.6
2017-08-27T13:22:40.347Z,49.6
2017-08-27T13:23:40.290Z,49.6
2017-08-27T13:24:39.492Z,49.6
2017-08-27T13:25:38.549Z,49.6
2017-08-27T13:26:38.369Z,49.6
2017-08-27T13:27:38.076Z,48.8
2017-08-27T13:28:37.390Z,49.3
2017-08-27T13:29:37.084Z,48.9
2017-08-27T13:30:36.148Z,48.9
2017-08-27T13:31:35.465Z,48.9
2017-08-27T13:32:35.035Z,48.9
2017-08-27T13:33:34.609Z,48.9
2017-08-27T13:34:33.916Z,48.9
2017-08-27T13:35:33.232Z,48.9
2017-08-27T13:36:33.037Z,48.9
2017-08-27T13:37:32.363Z,48.9
2017-08-27T13:38:32.182Z,48.9
2017-08-27T13:39:31.747Z,48.9
2017-08-27T13:40:30.797Z,48.9
2017-08-27T13:42:29.761Z,48.9
2017-08-27T13:44:28.848Z,50.1
2017-08-27T13:45:28.295Z,50.4
2017-08-27T13:46:27.893Z,50.4
2017-08-27T13:47:26.834Z,50.4
2017-08-27T13:48:26.671Z,51
2017-08-27T13:49:26.118Z,51
2017-08-27T13:50:25.817Z,51
2017-08-27T13:51:24.758Z,51
2017-08-27T13:52:24.331Z,51
2017-08-27T13:52:54.593Z,51
2017-08-27T13:53:24.958Z,51
2017-08-27T13:55:23.156Z,51
2017-08-27T13:56:22.473Z,51
2017-08-27T13:57:21.916Z,51
2017-08-27T13:58:21.362Z,51
2017-08-27T13:59:20.810Z,51
2017-08-27T14:00:20.253Z,51
2017-08-27T14:01:19.574Z,51
2017-08-27T14:02:19.142Z,51
2017-08-27T14:03:18.581Z,51
2017-08-27T14:04:17.643Z,51
2017-08-27T14:06:16.849Z,51
2017-08-27T14:07:16.412Z,51
2017-08-27T14:08:15.734Z,51
2017-08-27T14:09:15.057Z,51
2017-08-27T14:10:14.606Z,51
2017-08-27T14:11:14.037Z,50.2
2017-08-27T14:12:13.853Z,50.6
2017-08-27T14:13:13.300Z,50.6
2017-08-27T14:14:12.753Z,50.6
2017-08-27T14:15:12.070Z,50.4
2017-08-27T14:17:11.285Z,50.4
2017-08-27T14:18:10.357Z,50.4
2017-08-27T14:19:09.740Z,50.4
2017-08-27T14:20:09.693Z,50.6
2017-08-27T14:21:08.890Z,50.6
2017-08-27T14:22:08.335Z,50.6
2017-08-27T14:23:07.771Z,49.8
2017-08-27T14:24:07.466Z,49.8
2017-08-27T14:25:06.777Z,49.8
2017-08-27T14:28:05.368Z,50.3
2017-08-27T14:29:04.566Z,49.7
2017-08-27T14:30:03.746Z,50.3
2017-08-27T14:31:03.939Z,50.3
2017-08-27T14:32:03.563Z,50.3
2017-08-27T14:33:02.503Z,49.5
2017-08-27T14:34:01.949Z,49.6
2017-08-27T14:35:01.525Z,49.9
2017-08-27T14:36:00.843Z,50.1
2017-08-27T14:36:30.963Z,50.1
2017-08-27T14:37:01.720Z,50.1
2017-08-27T14:38:00.316Z,49.8
2017-08-27T14:38:59.762Z,49.8
2017-08-27T14:39:58.948Z,49.9
2017-08-27T14:40:58.386Z,49.4
2017-08-27T14:41:57.818Z,49.1
2017-08-27T14:42:57.247Z,49.8
2017-08-27T14:43:56.811Z,50.1
2017-08-27T14:44:56.238Z,50.1
2017-08-27T14:45:55.552Z,50.1
2017-08-27T14:46:55.504Z,49.1
2017-08-27T14:47:54.946Z,49.2
2017-08-27T14:48:24.952Z,49.2
2017-08-27T14:49:53.452Z,49.2
2017-08-27T14:50:53.263Z,49.2
2017-08-27T14:51:52.465Z,49.4
2017-08-27T14:52:52.295Z,49.6
2017-08-27T14:53:51.620Z,49
2017-08-27T14:54:50.812Z,49.5
2017-08-27T14:55:50.256Z,49.5
2017-08-27T14:56:50.073Z,49.8
2017-08-27T14:57:49.384Z,50.2
2017-08-27T14:58:48.453Z,49.4
2017-08-27T14:59:48.410Z,49.5
2017-08-27T15:00:47.730Z,49.5
2017-08-27T15:01:47.186Z,49.4